createdAt,value
2019-01-20T00:01:12.856Z,96476.50
2019-01-20T00:03:38.666Z,96474.84
2019-01-20T00:06:04.503Z,96474.79
2019-01-20T00:08:30.335Z,96467.59
2019-01-20T00:10:56.182Z,96471.82
2019-01-20T00:13:22.013Z,96469.88
2019-01-20T00:15:47.863Z,96466.69
2019-01-20T00:18:13.726Z,96470.99
2019-01-20T00:20:39.595Z,96458.95
2019-01-20T00:23:05.438Z,96461.24
2019-01-20T00:25:31.354Z,96465.89
2019-01-20T00:27:57.207Z,96461.24
2019-01-20T00:30:42.948Z,96464.04
2019-01-20T00:33:08.754Z,96464.04
2019-01-20T00:35:34.591Z,96463.25
2019-01-20T00:38:00.455Z,96465.55
2019-01-20T00:40:26.304Z,96464.60
2019-01-20T00:42:52.239Z,96467.47
2019-01-20T00:45:18.168Z,96465.49
2019-01-20T00:47:44.010Z,96463.36
2019-01-20T00:50:51.489Z,96463.99
2019-01-20T00:53:17.328Z,96466.16
2019-01-20T00:55:43.149Z,96467.23
2019-01-20T00:58:09.200Z,96466.44
2019-01-20T01:00:35.002Z,96470.08
2019-01-20T01:03:01.065Z,96468.54
2019-01-20T01:06:08.542Z,96470.23
2019-01-20T01:08:34.383Z,96464.88
2019-01-20T01:11:00.220Z,96460.25
2019-01-20T01:13:26.071Z,96464.95
2019-01-20T01:15:51.893Z,96470.09
2019-01-20T01:18:17.755Z,96476.80
2019-01-20T01:20:43.602Z,96473.80
2019-01-20T01:23:51.066Z,96476.38
2019-01-20T01:26:16.872Z,96473.59
2019-01-20T01:28:42.707Z,96483.16
2019-01-20T01:31:08.546Z,96484.66
2019-01-20T01:33:34.355Z,96471.14
2019-01-20T01:36:00.181Z,96473.22
2019-01-20T01:38:26.014Z,96475.20
2019-01-20T01:40:51.865Z,96471.48
2019-01-20T01:43:17.690Z,96473.98
2019-01-20T01:45:43.549Z,96473.59
2019-01-20T01:48:09.376Z,96469.92
2019-01-20T01:50:35.223Z,96467.42
2019-01-20T01:53:01.040Z,96472.48
2019-01-20T01:55:26.903Z,96471.10
2019-01-20T01:57:52.732Z,96462.44
2019-01-20T02:01:00.205Z,96463.30
2019-01-20T02:03:26.023Z,96467.14
2019-01-20T02:05:51.870Z,96462.86
2019-01-20T02:08:17.717Z,96457.13
2019-01-20T02:10:43.575Z,96452.98
2019-01-20T02:13:09.398Z,96458.33
2019-01-20T02:15:35.377Z,96446.53
2019-01-20T02:18:01.196Z,96449.34
2019-01-20T02:20:27.036Z,96448.20
2019-01-20T02:22:52.968Z,96438.47
2019-01-20T02:25:19.016Z,96449.37
2019-01-20T02:27:44.862Z,96442.24
2019-01-20T02:33:18.362Z,96444.09
2019-01-20T02:35:44.221Z,96454.87
2019-01-20T02:38:10.088Z,96445.09
2019-01-20T02:40:35.998Z,96454.00
2019-01-20T02:43:01.806Z,96453.01
2019-01-20T02:45:27.641Z,96455.16
2019-01-20T02:47:53.456Z,96456.57
2019-01-20T02:50:19.274Z,96457.39
2019-01-20T02:52:45.134Z,96452.89
2019-01-20T02:55:11.126Z,96454.59
2019-01-20T02:57:36.949Z,96451.89
2019-01-20T03:00:22.645Z,96456.81
2019-01-20T03:02:48.793Z,96458.97
2019-01-20T03:05:14.821Z,96458.81
2019-01-20T03:07:40.646Z,96459.94
2019-01-20T03:10:48.117Z,96456.45
2019-01-20T03:13:13.964Z,96459.11
2019-01-20T03:15:39.808Z,96455.81
2019-01-20T03:20:43.310Z,96447.77
2019-01-20T03:23:09.139Z,96455.48
2019-01-20T03:25:34.983Z,96455.75
2019-01-20T03:28:00.793Z,96452.41
2019-01-20T03:30:26.666Z,96450.61
2019-01-20T03:32:52.502Z,96443.02
2019-01-20T03:35:59.974Z,96436.23
2019-01-20T03:38:25.837Z,96438.38
2019-01-20T03:40:51.674Z,96433.59
2019-01-20T03:43:17.510Z,96442.23
2019-01-20T03:45:43.328Z,96443.22
2019-01-20T03:48:09.283Z,96440.14
2019-01-20T03:50:35.125Z,96437.58
2019-01-20T03:53:00.965Z,96436.03
2019-01-20T03:55:26.836Z,96441.23
2019-01-20T03:57:52.665Z,96446.28
2019-01-20T04:01:00.184Z,96451.33
2019-01-20T04:03:26.048Z,96439.42
2019-01-20T04:05:51.861Z,96438.14
2019-01-20T04:08:17.683Z,96435.95
2019-01-20T04:10:43.532Z,96440.91
2019-01-20T04:13:09.372Z,96443.94
2019-01-20T04:15:35.314Z,96442.88
2019-01-20T04:18:01.127Z,96445.02
2019-01-20T04:20:27.082Z,96430.98
2019-01-20T04:22:52.924Z,96429.62
2019-01-20T04:26:00.423Z,96428.79
2019-01-20T04:28:26.255Z,96427.05
2019-01-20T04:30:52.102Z,96426.73
2019-01-20T04:33:17.955Z,96427.42
2019-01-20T04:35:43.794Z,96426.44
2019-01-20T04:38:09.633Z,96423.88
2019-01-20T04:40:35.464Z,96425.77
2019-01-20T04:43:01.279Z,96427.59
2019-01-20T04:45:27.121Z,96429.66
2019-01-20T04:47:52.940Z,96425.61
2019-01-20T04:51:00.489Z,96430.73
2019-01-20T04:56:13.702Z,96440.06
2019-01-20T04:58:39.523Z,96443.91
2019-01-20T05:01:05.474Z,96430.69
2019-01-20T05:03:31.316Z,96442.63
2019-01-20T05:05:57.264Z,96445.88
2019-01-20T05:08:23.088Z,96446.89
2019-01-20T05:10:48.933Z,96448.68
2019-01-20T05:13:14.760Z,96444.36
2019-01-20T05:15:40.571Z,96441.39
2019-01-20T05:18:06.418Z,96445.12
2019-01-20T05:20:32.254Z,96443.64
2019-01-20T05:22:58.215Z,96444.22
2019-01-20T05:25:24.043Z,96446.09
2019-01-20T05:27:49.902Z,96443.91
2019-01-20T05:30:57.355Z,96446.38
2019-01-20T05:33:23.187Z,96442.83
2019-01-20T05:35:49.046Z,96452.98
2019-01-20T05:38:14.869Z,96448.36
2019-01-20T05:40:40.692Z,96449.23
2019-01-20T05:43:06.579Z,96455.45
2019-01-20T05:45:32.412Z,96455.16
2019-01-20T05:47:58.247Z,96452.02
2019-01-20T05:50:24.053Z,96450.55
2019-01-20T05:52:49.883Z,96448.30
2019-01-20T05:55:15.825Z,96453.62
2019-01-20T05:58:23.321Z,96451.23
2019-01-20T06:00:49.262Z,96452.44
2019-01-20T06:03:15.086Z,96457.16
2019-01-20T06:05:40.907Z,96451.25
2019-01-20T06:08:06.700Z,96456.94
2019-01-20T06:10:32.540Z,96459.71
2019-01-20T06:12:58.351Z,96460.42
2019-01-20T06:15:24.295Z,96455.78
2019-01-20T06:17:50.138Z,96459.22
2019-01-20T06:20:57.604Z,96457.26
2019-01-20T06:23:23.482Z,96463.55
2019-01-20T06:25:49.316Z,96460.42
2019-01-20T06:28:15.146Z,96456.66
2019-01-20T06:30:41.052Z,96465.34
2019-01-20T06:33:06.866Z,96466.11
2019-01-20T06:35:32.723Z,96467.31
2019-01-20T06:37:58.634Z,96469.96
2019-01-20T06:40:24.564Z,96465.43
2019-01-20T06:42:50.415Z,96474.68
2019-01-20T06:45:16.256Z,96474.98
2019-01-20T06:47:42.307Z,96481.88
2019-01-20T06:50:49.804Z,96477.13
2019-01-20T06:53:15.620Z,96480.58
2019-01-20T06:55:41.490Z,96485.98
2019-01-20T06:58:07.297Z,96486.88
2019-01-20T07:00:33.226Z,96490.34
2019-01-20T07:02:59.128Z,96498.40
2019-01-20T07:05:24.938Z,96495.33
2019-01-20T07:07:50.779Z,96501.16
2019-01-20T07:10:58.277Z,96495.84
2019-01-20T07:13:24.129Z,96505.85
2019-01-20T07:15:49.999Z,96509.31
2019-01-20T07:20:48.046Z,96513.45
2019-01-20T07:23:13.951Z,96508.55
2019-01-20T07:25:39.775Z,96507.47
2019-01-20T07:28:05.630Z,96513.45
2019-01-20T07:30:31.443Z,96509.63
2019-01-20T07:32:57.286Z,96512.38
2019-01-20T07:35:23.104Z,96512.67
2019-01-20T07:37:48.927Z,96524.19
2019-01-20T07:40:56.415Z,96522.62
2019-01-20T07:43:22.259Z,96520.93
2019-01-20T07:45:48.095Z,96525.77
2019-01-20T07:48:13.909Z,96527.55
2019-01-20T07:50:39.790Z,96527.33
2019-01-20T07:53:05.582Z,96530.41
2019-01-20T07:55:31.458Z,96520.56
2019-01-20T07:57:57.269Z,96519.56
2019-01-20T08:01:04.758Z,96528.73
2019-01-20T08:03:31.049Z,96534.43
2019-01-20T08:05:56.885Z,96535.30
2019-01-20T08:08:22.715Z,96537.78
2019-01-20T08:10:48.568Z,96544.66
2019-01-20T08:13:14.397Z,96542.48
2019-01-20T08:15:40.246Z,96550.06
2019-01-20T08:18:06.098Z,96549.66
2019-01-20T08:20:31.965Z,96552.88
2019-01-20T08:22:57.784Z,96557.30
2019-01-20T08:25:23.737Z,96552.61
2019-01-20T08:27:49.615Z,96559.92
2019-01-20T08:30:57.103Z,96562.33
2019-01-20T08:33:22.922Z,96562.39
2019-01-20T08:35:48.783Z,96563.02
2019-01-20T08:38:14.613Z,96566.87
2019-01-20T08:40:40.460Z,96558.83
2019-01-20T08:43:06.269Z,96561.94
2019-01-20T08:46:13.760Z,96559.66
2019-01-20T08:48:59.560Z,96563.94
2019-01-20T08:51:25.403Z,96571.08
2019-01-20T08:53:51.231Z,96576.77
2019-01-20T08:56:17.063Z,96571.23
2019-01-20T08:58:42.883Z,96579.48
2019-01-20T09:01:08.761Z,96582.11
2019-01-20T09:03:34.589Z,96583.09
2019-01-20T09:06:44.003Z,96586.20
2019-01-20T09:09:09.845Z,96581.75
2019-01-20T09:11:35.675Z,96584.86
2019-01-20T09:14:01.484Z,96590.38
2019-01-20T09:16:27.313Z,96593.45
2019-01-20T09:18:53.296Z,96590.41
2019-01-20T09:21:19.258Z,96592.85
2019-01-20T09:23:45.107Z,96600.36
2019-01-20T09:26:10.998Z,96598.97
2019-01-20T09:28:36.827Z,96594.61
2019-01-20T09:31:02.756Z,96594.58
2019-01-20T09:33:28.597Z,96597.94
2019-01-20T09:35:54.460Z,96597.38
2019-01-20T09:38:20.403Z,96604.05
2019-01-20T09:40:46.310Z,96603.87
2019-01-20T09:43:12.121Z,96603.97
2019-01-20T09:48:11.997Z,96600.64
2019-01-20T09:50:37.856Z,96604.45
2019-01-20T09:53:03.701Z,96601.00
2019-01-20T09:55:29.653Z,96602.17
2019-01-20T09:57:55.475Z,96604.58
2019-01-20T10:01:02.960Z,96597.65
2019-01-20T10:03:28.834Z,96601.90
2019-01-20T10:05:54.693Z,96603.06
2019-01-20T10:08:20.625Z,96600.41
2019-01-20T10:10:46.503Z,96601.61
2019-01-20T10:13:12.335Z,96600.20
2019-01-20T10:15:38.307Z,96600.20
2019-01-20T10:18:04.286Z,96601.94
2019-01-20T10:21:11.759Z,96602.97
2019-01-20T10:23:37.716Z,96610.48
2019-01-20T10:26:03.669Z,96601.01
2019-01-20T10:28:29.527Z,96603.28
2019-01-20T10:30:55.380Z,96605.09
2019-01-20T10:33:21.247Z,96607.17
2019-01-20T10:36:06.974Z,96610.77
2019-01-20T10:38:36.984Z,96601.95
2019-01-20T10:41:00.540Z,96601.92
2019-01-20T10:43:26.465Z,96602.74
2019-01-20T10:45:52.310Z,96602.28
2019-01-20T10:48:18.266Z,96598.78
2019-01-20T10:50:44.101Z,96604.86
2019-01-20T10:53:10.051Z,96606.85
2019-01-20T10:55:35.901Z,96599.09
2019-01-20T10:58:02.103Z,96604.86
2019-01-20T11:01:09.605Z,96604.03
2019-01-20T11:03:35.871Z,96608.64
2019-01-20T11:06:01.807Z,96607.93
2019-01-20T11:08:27.660Z,96604.92
2019-01-20T11:10:53.502Z,96615.69
2019-01-20T11:13:19.326Z,96607.21
2019-01-20T11:15:45.163Z,96611.52
2019-01-20T11:18:10.992Z,96615.56
2019-01-20T11:20:36.826Z,96615.19
2019-01-20T11:23:02.866Z,96607.80
2019-01-20T11:26:10.355Z,96613.66
2019-01-20T11:28:36.226Z,96610.22
2019-01-20T11:31:02.054Z,96618.97
2019-01-20T11:33:27.900Z,96619.72
2019-01-20T11:35:53.752Z,96621.25
2019-01-20T11:38:19.594Z,96622.30
2019-01-20T11:40:45.422Z,96625.16
2019-01-20T11:43:11.265Z,96621.31
2019-01-20T11:45:37.139Z,96621.56
2019-01-20T11:48:03.434Z,96622.51
2019-01-20T11:50:29.312Z,96616.08
2019-01-20T11:53:36.826Z,96617.42
2019-01-20T11:56:44.307Z,96614.00
2019-01-20T11:59:10.145Z,96619.38
2019-01-20T12:01:36.777Z,96623.19
2019-01-20T12:04:44.337Z,96614.27
2019-01-20T12:07:10.185Z,96612.25
2019-01-20T12:09:36.036Z,96603.61
2019-01-20T12:12:01.896Z,96601.70
2019-01-20T12:14:27.768Z,96605.79
2019-01-20T12:16:53.616Z,96608.72
2019-01-20T12:19:19.453Z,96607.19
2019-01-20T12:21:45.302Z,96611.19
2019-01-20T12:24:31.045Z,96606.50
2019-01-20T12:26:56.877Z,96606.50
2019-01-20T12:29:22.724Z,96615.20
2019-01-20T12:31:48.559Z,96609.90
2019-01-20T12:34:14.767Z,96613.09
2019-01-20T12:36:40.637Z,96608.52
2019-01-20T12:39:48.110Z,96603.19
2019-01-20T12:42:13.959Z,96611.86
2019-01-20T12:44:39.926Z,96609.20
2019-01-20T12:47:05.793Z,96614.32
2019-01-20T12:49:31.641Z,96613.05
2019-01-20T12:51:57.583Z,96617.13
2019-01-20T12:54:23.416Z,96615.38
2019-01-20T12:56:49.338Z,96610.44
2019-01-20T12:59:15.197Z,96613.42
2019-01-20T13:01:41.055Z,96610.70
2019-01-20T13:04:06.901Z,96616.10
2019-01-20T13:06:32.878Z,96607.45
2019-01-20T13:08:58.736Z,96608.87
2019-01-20T13:11:24.569Z,96616.34
2019-01-20T13:13:50.418Z,96612.91
2019-01-20T13:16:16.259Z,96611.46
2019-01-20T13:18:42.390Z,96610.79
2019-01-20T13:21:08.231Z,96615.45
2019-01-20T13:23:34.108Z,96618.34
2019-01-20T13:25:59.952Z,96611.23
2019-01-20T13:28:25.959Z,96616.64
2019-01-20T13:30:51.811Z,96615.31
2019-01-20T13:33:17.714Z,96615.83
2019-01-20T13:35:43.590Z,96610.32
2019-01-20T13:38:51.103Z,96616.34
2019-01-20T13:41:16.976Z,96615.16
2019-01-20T13:43:42.843Z,96620.16
2019-01-20T13:46:08.748Z,96618.98
2019-01-20T13:48:34.638Z,96620.16
2019-01-20T13:51:00.493Z,96616.95
2019-01-20T13:53:26.349Z,96611.81
2019-01-20T13:55:52.198Z,96615.39
2019-01-20T13:58:18.170Z,96615.42
2019-01-20T14:03:38.034Z,96613.53
2019-01-20T14:08:44.059Z,96613.81
2019-01-20T14:11:05.660Z,96620.34
2019-01-20T14:13:31.511Z,96622.94
2019-01-20T14:15:57.373Z,96614.56
2019-01-20T14:18:23.385Z,96617.33
2019-01-20T14:20:49.238Z,96617.84
2019-01-20T14:23:15.215Z,96618.86
2019-01-20T14:25:41.156Z,96618.75
2019-01-20T14:28:07.094Z,96621.88
2019-01-20T14:30:33.232Z,96618.88
2019-01-20T14:32:59.232Z,96624.50
2019-01-20T14:35:25.209Z,96624.08
2019-01-20T14:37:51.132Z,96624.08
2019-01-20T14:40:58.640Z,96618.63
2019-01-20T14:43:24.498Z,96624.59
2019-01-20T14:45:50.343Z,96634.30
2019-01-20T14:48:16.259Z,96630.98
2019-01-20T14:50:42.208Z,96632.70
2019-01-20T14:53:08.128Z,96638.89
2019-01-20T14:55:33.948Z,96547.35
2019-01-20T14:58:00.063Z,96641.94
2019-01-20T15:00:45.784Z,96645.11
2019-01-20T15:03:11.776Z,96641.27
2019-01-20T15:05:37.613Z,96643.58
2019-01-20T15:08:45.149Z,96637.19
2019-01-20T15:11:10.990Z,96641.34
2019-01-20T15:13:36.831Z,96644.41
2019-01-20T15:16:02.796Z,96648.35
2019-01-20T15:18:28.627Z,96651.22
2019-01-20T15:20:54.492Z,96650.13
2019-01-20T15:23:20.332Z,96644.64
2019-01-20T15:25:46.174Z,96652.14
2019-01-20T15:28:12.153Z,96656.80
2019-01-20T15:30:38.102Z,96659.35
2019-01-20T15:33:45.627Z,96659.39
2019-01-20T15:36:11.586Z,96664.47
2019-01-20T15:38:37.421Z,96669.33
2019-01-20T15:41:03.470Z,96671.68
2019-01-20T15:43:29.313Z,96663.41
2019-01-20T15:45:55.145Z,96672.77
2019-01-20T15:48:20.998Z,96671.95
2019-01-20T15:50:46.840Z,96674.55
2019-01-20T15:53:12.699Z,96680.50
2019-01-20T15:55:38.569Z,96676.52
2019-01-20T15:58:04.412Z,96679.45
2019-01-20T16:01:11.945Z,96686.97
2019-01-20T16:03:37.787Z,96691.88
2019-01-20T16:06:03.779Z,96691.88
2019-01-20T16:08:49.515Z,96697.76
2019-01-20T16:11:15.453Z,96697.76
2019-01-20T16:13:41.298Z,96693.13
2019-01-20T16:16:07.199Z,96698.27
2019-01-20T16:18:33.094Z,96707.33
2019-01-20T16:20:58.938Z,96700.86
2019-01-20T16:23:24.780Z,96704.50
2019-01-20T16:25:50.730Z,96701.75
2019-01-20T16:28:17.043Z,96709.01
2019-01-20T16:30:44.371Z,96707.44
2019-01-20T16:33:10.235Z,96716.97
2019-01-20T16:35:36.149Z,96712.06
2019-01-20T16:38:43.684Z,96717.44
2019-01-20T16:41:09.766Z,96711.72
2019-01-20T16:43:35.603Z,96717.67
2019-01-20T16:46:01.438Z,96713.32
2019-01-20T16:48:27.468Z,96710.53
2019-01-20T16:50:53.762Z,96716.84
2019-01-20T16:53:19.622Z,96723.82
2019-01-20T16:55:45.607Z,96727.12
2019-01-20T16:58:11.613Z,96725.20
2019-01-20T17:01:19.131Z,96728.30
2019-01-20T17:03:45.015Z,96725.91
2019-01-20T17:06:10.887Z,96732.14
2019-01-20T17:08:36.997Z,96730.23
2019-01-20T17:11:03.079Z,96731.52
2019-01-20T17:13:28.951Z,96734.97
2019-01-20T17:15:54.796Z,96740.54
2019-01-20T17:18:20.777Z,96737.95
2019-01-20T17:20:46.688Z,96736.42
2019-01-20T17:23:12.681Z,96745.67
2019-01-20T17:25:58.445Z,96745.44
2019-01-20T17:28:24.445Z,96745.44
2019-01-20T17:30:50.262Z,96757.27
2019-01-20T17:33:16.271Z,96771.91
2019-01-20T17:35:42.276Z,96764.84
2019-01-20T17:38:08.249Z,96762.30
2019-01-20T17:41:15.878Z,96768.77
2019-01-20T17:43:41.916Z,96776.25
2019-01-20T17:46:07.771Z,96779.62
2019-01-20T17:48:33.654Z,96782.32
2019-01-20T17:50:59.525Z,96782.32
2019-01-20T17:53:25.384Z,96785.06
2019-01-20T17:55:51.238Z,96789.14
2019-01-20T17:58:18.328Z,96783.59
2019-01-20T18:03:22.015Z,96786.97
2019-01-20T18:05:48.071Z,96799.12
2019-01-20T18:08:13.929Z,96800.22
2019-01-20T18:10:40.048Z,96802.25
2019-01-20T18:13:06.005Z,96798.88
2019-01-20T18:15:31.981Z,96804.29
2019-01-20T18:17:58.885Z,96804.66
2019-01-20T18:21:07.419Z,96810.84
2019-01-20T18:23:33.279Z,96815.52
2019-01-20T18:25:59.193Z,96814.64
2019-01-20T18:28:25.024Z,96816.41
2019-01-20T18:30:50.863Z,96826.20
2019-01-20T18:33:16.935Z,96824.91
2019-01-20T18:35:42.869Z,96820.29
2019-01-20T18:38:08.854Z,96826.05
2019-01-20T18:40:34.691Z,96827.49
2019-01-20T18:43:00.568Z,96833.41
2019-01-20T18:46:08.062Z,96835.39
2019-01-20T18:48:33.923Z,96842.12
2019-01-20T18:50:59.765Z,96843.23
2019-01-20T18:53:25.636Z,96845.91
2019-01-20T18:55:51.541Z,96844.95
2019-01-20T18:58:17.433Z,96845.36
2019-01-20T19:01:24.914Z,96843.64
2019-01-20T19:03:50.809Z,96846.37
2019-01-20T19:06:16.673Z,96848.59
2019-01-20T19:08:42.563Z,96851.64
2019-01-20T19:11:08.441Z,96859.22
2019-01-20T19:13:34.452Z,96855.95
2019-01-20T19:16:00.559Z,96857.32
2019-01-20T19:18:26.419Z,96857.88
2019-01-20T19:20:52.557Z,96862.22
2019-01-20T19:23:18.503Z,96866.80
2019-01-20T19:25:44.380Z,96871.55
2019-01-20T19:28:10.333Z,96872.20
2019-01-20T19:30:36.226Z,96873.27
2019-01-20T19:33:02.407Z,96871.77
2019-01-20T19:35:28.492Z,96879.07
2019-01-20T19:37:54.399Z,96875.75
2019-01-20T19:40:20.426Z,96871.55
2019-01-20T19:42:46.282Z,96875.93
2019-01-20T19:45:53.864Z,96882.16
2019-01-20T19:48:20.405Z,96876.81
2019-01-20T19:50:47.527Z,96886.78
2019-01-20T19:53:13.378Z,96883.61
2019-01-20T19:55:39.285Z,96885.91
2019-01-20T19:58:05.147Z,96892.33
2019-01-20T20:01:12.647Z,96894.73
2019-01-20T20:03:38.845Z,96894.31
2019-01-20T20:06:04.793Z,96892.94
2019-01-20T20:08:30.804Z,96900.14
2019-01-20T20:10:56.692Z,96834.27
2019-01-20T20:13:22.719Z,96894.92
2019-01-20T20:15:48.568Z,96900.64
2019-01-20T20:18:14.461Z,96900.37
2019-01-20T20:20:40.434Z,96908.30
2019-01-20T20:23:06.323Z,96912.01
2019-01-20T20:25:32.343Z,96905.39
2019-01-20T20:27:58.276Z,96911.22
2019-01-20T20:31:05.777Z,96916.06
2019-01-20T20:33:31.628Z,96916.95
2019-01-20T20:35:57.515Z,96917.41
2019-01-20T20:38:23.365Z,96922.76
2019-01-20T20:40:49.199Z,96923.09
2019-01-20T20:43:15.044Z,96929.05
2019-01-20T20:45:40.957Z,96931.81
2019-01-20T20:48:06.816Z,96935.69
2019-01-20T20:50:32.648Z,96930.44
2019-01-20T20:52:58.535Z,96938.38
2019-01-20T20:55:24.373Z,96940.00
2019-01-20T20:57:50.255Z,96942.53
2019-01-20T21:00:36.736Z,96940.35
2019-01-20T21:03:44.270Z,96945.17
2019-01-20T21:06:10.127Z,96953.06
2019-01-20T21:08:36.075Z,96952.33
2019-01-20T21:11:02.042Z,96953.21
2019-01-20T21:13:27.878Z,96952.09
2019-01-20T21:15:53.695Z,96958.33
2019-01-20T21:18:19.540Z,96954.00
2019-01-20T21:20:45.371Z,96953.67
2019-01-20T21:23:12.267Z,96954.51
2019-01-20T21:25:39.095Z,96956.59
2019-01-20T21:28:04.947Z,96965.77
2019-01-20T21:30:30.763Z,96959.08
2019-01-20T21:32:56.721Z,96956.95
2019-01-20T21:35:22.557Z,96966.44
2019-01-20T21:37:48.494Z,96966.05
2019-01-20T21:40:55.965Z,96968.92
2019-01-20T21:43:21.870Z,96969.66
2019-01-20T21:45:47.673Z,96978.44
2019-01-20T21:48:13.540Z,96988.14
2019-01-20T21:50:39.403Z,96980.89
2019-01-20T21:53:05.264Z,96987.81
2019-01-20T21:55:31.125Z,96982.74
2019-01-20T21:57:56.997Z,96992.08
2019-01-20T22:01:04.475Z,96985.00
2019-01-20T22:03:30.318Z,96991.70
2019-01-20T22:05:56.151Z,96990.87
2019-01-20T22:08:21.958Z,97001.50
2019-01-20T22:10:48.190Z,96999.84
2019-01-20T22:13:14.039Z,97000.30
2019-01-20T22:15:39.866Z,97001.87
2019-01-20T22:18:05.684Z,97001.31
2019-01-20T22:20:31.514Z,97003.33
2019-01-20T22:22:57.344Z,97010.64
2019-01-20T22:25:23.445Z,97010.13
2019-01-20T22:27:49.722Z,97011.28
2019-01-20T22:30:57.219Z,97005.02
2019-01-20T22:33:23.038Z,97008.34
2019-01-20T22:35:48.871Z,97009.41
2019-01-20T22:38:14.709Z,97014.07
2019-01-20T22:40:40.526Z,97011.48
2019-01-20T22:43:06.369Z,97013.23
2019-01-20T22:45:32.197Z,97011.15
2019-01-20T22:47:58.056Z,97017.39
2019-01-20T22:50:23.966Z,97011.56
2019-01-20T22:52:49.959Z,97014.15
2019-01-20T22:55:57.391Z,97012.23
2019-01-20T22:58:23.271Z,97014.77
2019-01-20T23:01:30.747Z,97019.55
2019-01-20T23:03:56.580Z,97012.72
2019-01-20T23:06:22.683Z,97015.53
2019-01-20T23:08:48.529Z,97017.80
2019-01-20T23:11:14.373Z,97015.36
2019-01-20T23:13:40.202Z,97012.58
2019-01-20T23:16:06.130Z,97011.80
2019-01-20T23:18:32.081Z,97013.00
2019-01-20T23:20:58.011Z,97013.97
2019-01-20T23:23:23.844Z,97007.83
2019-01-20T23:25:49.773Z,97011.94
2019-01-20T23:28:15.593Z,97015.81
2019-01-20T23:30:41.855Z,97015.81
2019-01-20T23:33:07.684Z,97015.53
2019-01-20T23:35:33.522Z,97010.36
2019-01-20T23:37:59.373Z,97011.00
2019-01-20T23:40:25.210Z,97011.66
2019-01-20T23:42:51.048Z,97011.09
2019-01-20T23:45:16.893Z,97017.28
2019-01-20T23:47:42.729Z,97016.77
2019-01-20T23:50:50.218Z,97011.55
2019-01-20T23:53:16.061Z,97016.50
2019-01-20T23:55:41.911Z,97014.70
2019-01-20T23:58:07.714Z,97017.28
